W-star — A8UX7 — position and weather

sailwx.info

Track history (hours):
 
Tides and Currents Weather Stations Pressure Air Temp Water Temp Dewpoint Dewpoint Depression Visibility Wind Speed Wind Dir Waves Ship Positions

W-star

Last reported at 2018-Jun-15 10:46 UTC. Time now 2018-Jun-22 16:53 UTC.
Position N 36°10' E 014°52'.

Length 230 m; draft 13.2 m.

Type: Cargo ship. MMSI: 636014569.

Date/timePositionNaut miles runAvg speedWind from/ knotsBaromVisibWave heightAir tempDewpointWater temp
2018-Jun-15 10:46N 36°10' E 014°52'310.8
2018-Jun-15 10:31N 36°11' E 014°49'710.8
2018-Jun-15 09:52N 36°13' E 014°40'1110.8
2018-Jun-15 08:53N 36°16' E 014°28'610.7
2018-Jun-15 08:18N 36°18' E 014°20'310.7
2018-Jun-15 07:59N 36°19' E 014°17'610.8
2018-Jun-15 07:26N 36°21' E 014°10'510.8
2018-Jun-15 07:00N 36°23' E 014°04'  
2018-Jun-12 17:30N 36°44' E 000°41'610.8
2018-Jun-12 16:59N 36°43' E 000°34'610.6
2018-Jun-12 16:24N 36°42' E 000°26'410.7
2018-Jun-12 16:00N 36°41' E 000°21'510.6
2018-Jun-12 15:29N 36°40' E 000°15'26611.3
2018-Jun-11 15:57N 36°01' W 005°12'613.5
2018-Jun-11 15:31N 35°60' W 005°19'713.5
2018-Jun-11 15:00N 35°57' W 005°27'230 9.8
2018-Jun-10 15:34N 37°35' W 009°47'4310.9
2018-Jun-10 11:38N 38°17' W 009°59'110.7
2018-Jun-10 11:30N 38°18' W 009°60'510.9
2018-Jun-10 11:00N 38°23' W 010°02'611.3
2018-Jun-10 10:30N 38°29' W 010°04'611.1
2018-Jun-10 09:59N 38°34' W 010°05'511.2
2018-Jun-10 09:30N 38°40' W 010°06'511.0
2018-Jun-10 09:00N 38°45' W 010°07'510.6
2018-Jun-10 08:31N 38°50' W 010°06'510.6
2018-Jun-10 08:00N 38°56' W 010°06'510.8
2018-Jun-10 07:30N 39°01' W 010°06'  
2018-Jun-07 22:11N 48°41' W 006°12'210.5
2018-Jun-07 21:59N 48°42' W 006°11'2210.6
2018-Jun-07 19:53N 49°03' W 005°58'20 9.4
2018-Jun-07 17:48N 49°02' W 005°28'711.9
2018-Jun-07 17:14N 49°06' W 005°19'7811.4
2018-Jun-07 10:27N 49°46' W 003°37'610.9
2018-Jun-07 09:52N 49°49' W 003°28'411.6
2018-Jun-07 09:30N 49°51' W 003°22'711.6
2018-Jun-07 08:55N 49°53' W 003°13'512.2
2018-Jun-07 08:31N 49°56' W 003°06'612.5
2018-Jun-07 08:01N 49°59' W 002°57'612.7
2018-Jun-07 07:31N 50°01' W 002°48'713.0
2018-Jun-07 06:56N 50°03' W 002°37'1813.0
2018-Jun-07 05:33N 50°08' W 002°10'112.6
2018-Jun-07 05:30N 50°08' W 002°09'612.4
2018-Jun-07 05:01N 50°09' W 001°60'611.9
2018-Jun-07 04:30N 50°11' W 001°51'1211.1
2018-Jun-07 03:25N 50°15' W 001°33'2810.0
2018-Jun-07 00:37N 50°23' W 000°51'210.3
2018-Jun-07 00:25N 50°23' W 000°48'510.5
2018-Jun-07 00:00N 50°24' W 000°41'810.8
2018-Jun-06 23:18N 50°26' W 000°30'311.3
2018-Jun-06 23:00N 50°27' W 000°25'611.6
2018-Jun-06 22:30N 50°28' W 000°16'612.0
2018-Jun-06 21:58N 50°30' W 000°06'612.2
2018-Jun-06 21:30N 50°32' E 000°03'612.3
2018-Jun-06 21:00N 50°33' E 000°12'612.4
2018-Jun-06 20:30N 50°35' E 000°21'612.4
2018-Jun-06 20:00N 50°37' E 000°31'612.0
2018-Jun-06 19:30N 50°39' E 000°39'611.9
2018-Jun-06 19:00N 50°43' E 000°47'711.6
2018-Jun-06 18:26N 50°47' E 000°55'611.4
2018-Jun-06 17:56N 50°50' E 001°02'811.0
2018-Jun-06 17:14N 50°55' E 001°11'610.5
2018-Jun-06 16:37N 50°60' E 001°19'110.4
2018-Jun-06 16:30N 51°01' E 001°20'511.0
2018-Jun-06 16:00N 51°04' E 001°27'611.6
2018-Jun-06 15:30N 51°08' E 001°34'611.8
2018-Jun-06 15:00N 51°12' E 001°41'612.2
2018-Jun-06 14:30N 51°16' E 001°48'612.8
2018-Jun-06 14:00N 51°22' E 001°53'613.0
2018-Jun-06 13:30N 51°27' E 001°59'713.2
2018-Jun-06 13:00N 51°32' E 002°06'713.1
2018-Jun-06 12:29N 51°37' E 002°13'713.0
2018-Jun-06 11:58N 51°42' E 002°20'712.6
2018-Jun-06 11:24N 51°48' E 002°27'512.2
2018-Jun-06 10:57N 51°52' E 002°32'511.7
2018-Jun-06 10:30N 51°57' E 002°36'611.4
2018-Jun-06 10:00N 52°03' E 002°37'611.1
2018-Jun-06 09:30N 52°08' E 002°37'610.7
2018-Jun-06 08:59N 52°14' E 002°39'510.5
2018-Jun-06 08:30N 52°18' E 002°43'510.4
2018-Jun-06 08:00N 52°23' E 002°47'510.4
2018-Jun-06 07:30N 52°28' E 002°51'510.4
2018-Jun-06 07:00N 52°32' E 002°55'510.4
2018-Jun-06 06:30N 52°37' E 002°59'610.8
2018-Jun-06 05:59N 52°42' E 003°03'611.0
2018-Jun-06 05:29N 52°46' E 003°08'611.4
2018-Jun-06 05:00N 52°51' E 003°12'611.6
2018-Jun-06 04:30N 52°56' E 003°16'611.9
2018-Jun-06 04:00N 53°02' E 003°19'612.0
2018-Jun-06 03:30N 53°08' E 003°22'612.2
2018-Jun-06 03:00N 53°14' E 003°25'612.4
2018-Jun-06 02:30N 53°20' E 003°28'612.2
2018-Jun-06 02:00N 53°25' E 003°31'712.0
2018-Jun-06 01:27N 53°32' E 003°34'711.7
2018-Jun-06 00:52N 53°38' E 003°37'611.2
2018-Jun-06 00:22N 53°44' E 003°41'411.0
2018-Jun-06 00:00N 53°46' E 003°46'511.0
2018-Jun-05 23:30N 53°49' E 003°54'511.0
2018-Jun-05 23:00N 53°52' E 004°01'1110.9
2018-Jun-05 21:59N 53°59' E 004°16'611.0
2018-Jun-05 21:26N 54°03' E 004°24'  
Track history (hours):
 
Tides and Currents Weather Stations Pressure Air Temp Water Temp Dewpoint Dewpoint Depression Visibility Wind Speed Wind Dir Waves Ship Positions

W-star

Last reported at 2018-Jun-15 10:46 UTC. Time now 2018-Jun-22 16:53 UTC.
Position N 36°10' E 014°52'.

Length 230 m; draft 13.2 m.

Type: Cargo ship. MMSI: 636014569.

Date/timePositionNaut miles runAvg speedWind from/ knotsBaromVisibWave heightAir tempDewpointWater temp
2018-Jun-15 10:46N 36°10' E 014°52'310.8
2018-Jun-15 10:31N 36°11' E 014°49'710.8
2018-Jun-15 09:52N 36°13' E 014°40'1110.8
2018-Jun-15 08:53N 36°16' E 014°28'610.7
2018-Jun-15 08:18N 36°18' E 014°20'310.7
2018-Jun-15 07:59N 36°19' E 014°17'610.8
2018-Jun-15 07:26N 36°21' E 014°10'510.8
2018-Jun-15 07:00N 36°23' E 014°04'  
2018-Jun-12 17:30N 36°44' E 000°41'610.8
2018-Jun-12 16:59N 36°43' E 000°34'610.6
2018-Jun-12 16:24N 36°42' E 000°26'410.7
2018-Jun-12 16:00N 36°41' E 000°21'510.6
2018-Jun-12 15:29N 36°40' E 000°15'26611.3
2018-Jun-11 15:57N 36°01' W 005°12'613.5
2018-Jun-11 15:31N 35°60' W 005°19'713.5
2018-Jun-11 15:00N 35°57' W 005°27'230 9.8
2018-Jun-10 15:34N 37°35' W 009°47'4310.9
2018-Jun-10 11:38N 38°17' W 009°59'110.7
2018-Jun-10 11:30N 38°18' W 009°60'510.9
2018-Jun-10 11:00N 38°23' W 010°02'611.3
2018-Jun-10 10:30N 38°29' W 010°04'611.1
2018-Jun-10 09:59N 38°34' W 010°05'511.2
2018-Jun-10 09:30N 38°40' W 010°06'511.0
2018-Jun-10 09:00N 38°45' W 010°07'510.6
2018-Jun-10 08:31N 38°50' W 010°06'510.6
2018-Jun-10 08:00N 38°56' W 010°06'510.8
2018-Jun-10 07:30N 39°01' W 010°06'  
2018-Jun-07 22:11N 48°41' W 006°12'210.5
2018-Jun-07 21:59N 48°42' W 006°11'2210.6
2018-Jun-07 19:53N 49°03' W 005°58'20 9.4
2018-Jun-07 17:48N 49°02' W 005°28'711.9
2018-Jun-07 17:14N 49°06' W 005°19'7811.4
2018-Jun-07 10:27N 49°46' W 003°37'610.9
2018-Jun-07 09:52N 49°49' W 003°28'411.6
2018-Jun-07 09:30N 49°51' W 003°22'711.6
2018-Jun-07 08:55N 49°53' W 003°13'512.2
2018-Jun-07 08:31N 49°56' W 003°06'612.5
2018-Jun-07 08:01N 49°59' W 002°57'612.7
2018-Jun-07 07:31N 50°01' W 002°48'713.0
2018-Jun-07 06:56N 50°03' W 002°37'1813.0
2018-Jun-07 05:33N 50°08' W 002°10'112.6
2018-Jun-07 05:30N 50°08' W 002°09'612.4
2018-Jun-07 05:01N 50°09' W 001°60'611.9
2018-Jun-07 04:30N 50°11' W 001°51'1211.1
2018-Jun-07 03:25N 50°15' W 001°33'2810.0
2018-Jun-07 00:37N 50°23' W 000°51'210.3
2018-Jun-07 00:25N 50°23' W 000°48'510.5
2018-Jun-07 00:00N 50°24' W 000°41'810.8
2018-Jun-06 23:18N 50°26' W 000°30'311.3
2018-Jun-06 23:00N 50°27' W 000°25'611.6
2018-Jun-06 22:30N 50°28' W 000°16'612.0
2018-Jun-06 21:58N 50°30' W 000°06'612.2
2018-Jun-06 21:30N 50°32' E 000°03'612.3
2018-Jun-06 21:00N 50°33' E 000°12'612.4
2018-Jun-06 20:30N 50°35' E 000°21'612.4
2018-Jun-06 20:00N 50°37' E 000°31'612.0
2018-Jun-06 19:30N 50°39' E 000°39'611.9
2018-Jun-06 19:00N 50°43' E 000°47'711.6
2018-Jun-06 18:26N 50°47' E 000°55'611.4
2018-Jun-06 17:56N 50°50' E 001°02'811.0
2018-Jun-06 17:14N 50°55' E 001°11'610.5
2018-Jun-06 16:37N 50°60' E 001°19'110.4
2018-Jun-06 16:30N 51°01' E 001°20'511.0
2018-Jun-06 16:00N 51°04' E 001°27'611.6
2018-Jun-06 15:30N 51°08' E 001°34'611.8
2018-Jun-06 15:00N 51°12' E 001°41'612.2
2018-Jun-06 14:30N 51°16' E 001°48'612.8
2018-Jun-06 14:00N 51°22' E 001°53'613.0
2018-Jun-06 13:30N 51°27' E 001°59'713.2
2018-Jun-06 13:00N 51°32' E 002°06'713.1
2018-Jun-06 12:29N 51°37' E 002°13'713.0
2018-Jun-06 11:58N 51°42' E 002°20'712.6
2018-Jun-06 11:24N 51°48' E 002°27'512.2
2018-Jun-06 10:57N 51°52' E 002°32'511.7
2018-Jun-06 10:30N 51°57' E 002°36'611.4
2018-Jun-06 10:00N 52°03' E 002°37'611.1
2018-Jun-06 09:30N 52°08' E 002°37'610.7
2018-Jun-06 08:59N 52°14' E 002°39'510.5
2018-Jun-06 08:30N 52°18' E 002°43'510.4
2018-Jun-06 08:00N 52°23' E 002°47'510.4
2018-Jun-06 07:30N 52°28' E 002°51'510.4
2018-Jun-06 07:00N 52°32' E 002°55'510.4
2018-Jun-06 06:30N 52°37' E 002°59'610.8
2018-Jun-06 05:59N 52°42' E 003°03'611.0
2018-Jun-06 05:29N 52°46' E 003°08'611.4
2018-Jun-06 05:00N 52°51' E 003°12'611.6
2018-Jun-06 04:30N 52°56' E 003°16'611.9
2018-Jun-06 04:00N 53°02' E 003°19'612.0
2018-Jun-06 03:30N 53°08' E 003°22'612.2
2018-Jun-06 03:00N 53°14' E 003°25'612.4
2018-Jun-06 02:30N 53°20' E 003°28'612.2
2018-Jun-06 02:00N 53°25' E 003°31'712.0
2018-Jun-06 01:27N 53°32' E 003°34'711.7
2018-Jun-06 00:52N 53°38' E 003°37'611.2
2018-Jun-06 00:22N 53°44' E 003°41'411.0
2018-Jun-06 00:00N 53°46' E 003°46'511.0
2018-Jun-05 23:30N 53°49' E 003°54'511.0
2018-Jun-05 23:00N 53°52' E 004°01'1110.9
2018-Jun-05 21:59N 53°59' E 004°16'611.0
2018-Jun-05 21:26N 54°03' E 004°24'  

Dump ship's entire track history